Terminal Aerodrome Forecast
Issued by NWS

Home | Current Version | Previous Version | Text Only | Print | Product List | Glossary On
Versions: 1 2 3 4 5 6 7 8 9 10 11 12 13 14
378
FTUS41 KBTV 251726
TAFSLK
TAF
KSLK 251726Z 2518/2618 10008KT 5SM -RA BR OVC025
     FM260000 06004KT 5SM -SHRA OVC015
     FM260400 27005KT P6SM VCSH OVC008
     FM260800 27008KT 4SM -SHRA SCT003 OVC008
     FM261500 27010KT P6SM VCSH OVC015=

USA.gov is the U.S. government's official web portal to all federal, state and local government web resources and services.